Strona główna
METAR-TAF:

METAR-TAF

Lotnisko :

Port lotniczy Male

Male, Malediwy

Szerokość geograficzna: 04-12N, Długość geograficzna: 073-32E, wysokość: 2 m

Aktualna obserwacja pogody

Raport powstał 2 godziny i 11 minut temu, godzina 20:00 UTC
Wiatr 1 kt z kierunków zmiennych
Temperatura 28°C
Wilgotność 79%
Ciśnienie 1010 hPa
Widzialność 10 km lub więcej
Mało chmury na wysokości 1800 ft
Rozproszone chmury na wysokości 29000 ft

METAR: VRMM 182000Z VRB01KT 9999 FEW018 SCT290 28/24 Q1010 NOSIG

czas: 03:11 (22:11 UTC)

Prognoza

Raport powstał 5 godziny i 11 minut temu, godzina 17:00 UTC
Prognoza ważna od 18 godzina 18 UTC do 19 godzina 24 UTC
Wiatr 2 kt z kierunków zmiennych
Widzialność 10 km lub więcej
Mało chmury na wysokości 1800 ft

TAF: VRMM 181700Z 1818/1924 VRB02KT 9999 FEW018

Obserwacja i prognoza pogody dla ponad 4000 lotnisk (raport METAR i TAF).

Dostępne stacje oznaczono żółtymi i czerwonymi punktami na mapie.

Najedź kursorem aby zobaczyć nazwę stacji.

Kliknij aby zobaczyć obserwacje i prognozy pogody.

Aby zmienić mapę: kliknij na zielony przycisk z czarnym krzyżykiem, aby powiększyć; na zielony przycisk z myślnikiem, aby pomniejszyć; na zielone strzałki, aby przejść do map sąsiednich.


METAR-TAF: